Time;durP1;ratioP1;P1;durP2;ratioP2;P2;SDS_P1;SDS_P2;PMS_P1;PMS_P2;Temp;Humidity;BMP_temperature;BMP_pressure;BME280_temperature;BME280_humidity;BME280_pressure;Samples;Min_cycle;Max_cycle;Signal;HPM_P1;HPM_P2
2021/01/21 00:01:08;;;;;;;4.97;2.20;;;;;;;9.48;72.79;98560.59;5021339;28;20050;-62
2021/01/21 00:03:34;;;;;;;3.35;2.03;;;;;;;9.54;72.49;98559.03;5022225;28;20057;-63
2021/01/21 00:06:00;;;;;;;10.55;3.65;;;;;;;9.63;72.11;98537.28;5021618;28;20555;-62
2021/01/21 00:08:27;;;;;;;11.07;3.83;;;;;;;9.59;72.49;98527.91;5020610;28;20064;-62
2021/01/21 00:10:53;;;;;;;10.45;3.75;;;;;;;9.54;72.68;98529.50;5022520;28;20502;-63
2021/01/21 00:13:18;;;;;;;13.10;4.88;;;;;;;9.53;72.77;98514.44;5020932;28;20057;-63
2021/01/21 00:15:44;;;;;;;11.00;4.30;;;;;;;9.49;72.90;98497.00;5022929;28;20053;-62
2021/01/21 00:18:11;;;;;;;11.85;4.40;;;;;;;9.62;72.13;98487.25;5022931;28;20041;-62
2021/01/21 00:20:37;;;;;;;7.47;3.40;;;;;;;9.61;72.23;98490.13;5022296;28;20052;-62
2021/01/21 00:23:03;;;;;;;7.93;3.45;;;;;;;9.62;71.94;98498.00;5021224;28;20398;-62
2021/01/21 00:25:29;;;;;;;6.82;3.10;;;;;;;9.71;71.83;98477.22;5022080;28;20069;-62
2021/01/21 00:27:55;;;;;;;10.27;3.40;;;;;;;9.76;71.46;98476.66;5021948;28;20081;-63
2021/01/21 00:30:22;;;;;;;7.78;2.70;;;;;;;9.70;71.79;98461.31;5019622;28;20140;-63
2021/01/21 00:32:48;;;;;;;10.90;3.53;;;;;;;9.76;71.54;98456.03;5021200;28;20392;-64
2021/01/21 00:35:15;;;;;;;10.93;3.60;;;;;;;9.71;71.39;98439.63;5021638;28;20046;-62
2021/01/21 00:37:41;;;;;;;12.05;3.60;;;;;;;9.67;71.55;98416.03;5020465;28;20077;-63
2021/01/21 00:40:08;;;;;;;5.97;2.42;;;;;;;9.53;71.93;98401.66;5020455;28;20046;-63
2021/01/21 00:42:34;;;;;;;10.55;3.15;;;;;;;9.52;72.20;98398.09;5021577;28;20057;-63
2021/01/21 00:45:00;;;;;;;6.22;2.13;;;;;;;9.48;72.58;98378.03;5022119;28;20125;-62
2021/01/21 00:47:26;;;;;;;4.25;2.15;;;;;;;9.42;72.46;98374.28;5022622;28;20080;-62
2021/01/21 00:49:52;;;;;;;9.40;3.03;;;;;;;9.43;72.55;98370.53;5021532;28;20099;-63
2021/01/21 00:52:19;;;;;;;5.47;2.20;;;;;;;9.47;72.60;98373.69;5022124;28;20053;-61
2021/01/21 00:54:44;;;;;;;6.82;2.40;;;;;;;9.45;72.50;98365.84;5020885;28;20060;-62
2021/01/21 00:57:10;;;;;;;9.55;3.15;;;;;;;9.51;72.22;98355.34;5021496;28;20061;-62
2021/01/21 00:59:36;;;;;;;6.88;2.33;;;;;;;9.50;72.41;98345.63;5020854;28;20093;-61
2021/01/21 01:02:02;;;;;;;4.15;2.15;;;;;;;9.43;72.54;98340.19;5026392;28;20149;-62
2021/01/21 01:04:28;;;;;;;9.05;2.80;;;;;;;9.51;72.24;98333.84;5026043;28;20056;-63
2021/01/21 01:06:54;;;;;;;5.05;2.10;;;;;;;9.39;72.92;98326.31;5026232;28;20447;-61
2021/01/21 01:09:21;;;;;;;5.70;1.70;;;;;;;9.49;72.54;98309.88;5023445;28;20419;-61
2021/01/21 01:11:47;;;;;;;10.43;3.58;;;;;;;9.52;72.41;98297.94;5026366;28;20095;-63
2021/01/21 01:14:13;;;;;;;12.70;3.78;;;;;;;9.38;73.02;98300.50;5024787;28;20049;-62
2021/01/21 01:16:39;;;;;;;11.75;3.08;;;;;;;9.41;72.97;98292.06;5025509;28;20045;-62
2021/01/21 01:19:06;;;;;;;7.45;3.45;;;;;;;9.50;72.36;98283.88;5024427;28;20495;-63
2021/01/21 01:21:31;;;;;;;12.98;3.38;;;;;;;9.55;72.15;98282.25;4991027;28;20131;-62
2021/01/21 01:23:58;;;;;;;7.00;3.15;;;;;;;9.59;71.93;98277.34;5024725;28;20057;-63
2021/01/21 01:26:24;;;;;;;11.40;3.40;;;;;;;9.69;71.50;98272.47;5025030;28;20041;-62
2021/01/21 01:28:50;;;;;;;9.75;3.58;;;;;;;9.69;71.52;98267.09;5024763;28;20061;-64
2021/01/21 01:31:16;;;;;;;5.43;2.10;;;;;;;9.74;71.69;98259.28;5023727;28;20057;-63
2021/01/21 01:33:43;;;;;;;7.93;3.25;;;;;;;9.77;71.53;98252.69;5026376;28;20127;-64
2021/01/21 01:36:09;;;;;;;11.82;4.30;;;;;;;9.69;73.05;98255.50;5024246;28;20058;-64
2021/01/21 01:38:35;;;;;;;5.95;2.80;;;;;;;9.53;74.94;98257.47;5024990;28;20045;-64
2021/01/21 01:41:01;;;;;;;11.02;3.15;;;;;;;9.45;75.06;98255.75;5025071;28;20050;-65
2021/01/21 01:43:28;;;;;;;8.98;3.00;;;;;;;9.46;75.22;98256.56;5024796;28;20128;-63
2021/01/21 01:45:54;;;;;;;11.95;3.70;;;;;;;9.39;75.68;98244.94;5024642;28;20522;-63
2021/01/21 01:48:20;;;;;;;13.35;3.85;;;;;;;9.39;75.70;98229.69;5022926;28;20064;-62
2021/01/21 01:50:47;;;;;;;9.75;3.08;;;;;;;9.32;76.05;98207.31;5023788;28;20042;-62
2021/01/21 01:53:13;;;;;;;11.30;3.42;;;;;;;9.45;74.99;98204.75;5024540;28;20639;-63
2021/01/21 01:55:39;;;;;;;6.55;3.20;;;;;;;9.44;74.95;98211.13;5025256;28;20683;-63
2021/01/21 01:58:08;;;;;;;18.00;4.78;;;;;;;9.49;74.56;98207.03;5022532;28;20151;-62
2021/01/21 02:00:35;;;;;;;9.20;3.47;;;;;;;9.42;74.96;98213.19;5025059;28;20053;-63
2021/01/21 02:03:02;;;;;;;9.20;3.50;;;;;;;9.40;75.77;98201.78;5023565;28;20088;-63
2021/01/21 02:05:27;;;;;;;15.35;3.85;;;;;;;9.25;76.81;98187.63;5023628;28;20440;-60
2021/01/21 02:07:53;;;;;;;10.60;3.42;;;;;;;9.35;76.13;98174.72;5024008;28;20045;-62
2021/01/21 02:10:21;;;;;;;8.77;2.80;;;;;;;9.30;76.56;98174.44;5024848;28;20058;-62
2021/01/21 02:13:12;;;;;;;14.68;4.28;;;;;;;9.28;76.48;98163.91;5024129;28;20100;-62
2021/01/21 02:15:48;;;;;;;11.32;3.88;;;;;;;9.35;75.87;98155.94;5024825;28;20478;-61
2021/01/21 02:18:20;;;;;;;14.70;4.35;;;;;;;9.42;75.21;98153.28;5023386;28;20057;-63
2021/01/21 02:21:10;;;;;;;6.68;2.92;;;;;;;9.45;74.68;98152.88;5023712;28;20041;-62
2021/01/21 02:24:13;;;;;;;7.68;2.85;;;;;;;9.50;74.11;98149.63;5009366;28;20128;-63
2021/01/21 02:26:45;;;;;;;8.15;3.00;;;;;;;9.56;73.53;98144.28;5022184;28;20049;-64
2021/01/21 02:29:13;;;;;;;6.85;2.75;;;;;;;9.60;73.65;98155.50;5022977;28;20108;-64
2021/01/21 02:32:00;;;;;;;9.32;3.00;;;;;;;9.54;74.42;98156.25;5023732;28;20545;-62
2021/01/21 02:34:32;;;;;;;9.30;2.15;;;;;;;9.20;78.30;98133.69;5012622;28;20175;-60
2021/01/21 02:37:01;;;;;;;13.57;3.63;;;;;;;8.90;81.09;98133.88;5024239;28;20069;-61
2021/01/21 02:39:29;;;;;;;8.75;3.47;;;;;;;8.79;81.75;98131.69;5024005;28;20050;-61
2021/01/21 02:41:55;;;;;;;12.48;4.00;;;;;;;8.69;82.45;98127.50;5022888;28;20090;-62
2021/01/21 02:44:21;;;;;;;14.43;4.20;;;;;;;8.74;82.35;98117.00;5013129;28;20136;-62
2021/01/21 02:46:49;;;;;;;12.48;4.97;;;;;;;8.76;82.48;98101.56;5022691;28;20601;-62
2021/01/21 02:49:16;;;;;;;13.57;4.38;;;;;;;8.74;82.29;98108.97;5022001;28;20065;-60
2021/01/21 02:51:47;;;;;;;13.48;4.00;;;;;;;8.80;81.77;98101.19;5024059;28;20089;-62
2021/01/21 02:54:24;;;;;;;10.77;3.40;;;;;;;8.89;80.90;98102.69;5021715;28;20053;-61
2021/01/21 02:56:54;;;;;;;6.72;2.33;;;;;;;9.04;79.32;98095.41;5021162;28;20046;-62
2021/01/21 02:59:21;;;;;;;6.90;2.78;;;;;;;9.14;78.92;98096.91;5022215;28;20072;-63
2021/01/21 03:01:49;;;;;;;5.97;2.00;;;;;;;9.21;77.98;98087.06;5023629;28;20398;-64
2021/01/21 03:04:18;;;;;;;4.50;1.80;;;;;;;9.29;77.30;98076.19;5020919;28;20069;-64
2021/01/21 03:06:45;;;;;;;4.07;1.60;;;;;;;9.43;76.28;98077.91;5022668;28;20474;-63
2021/01/21 03:09:11;;;;;;;3.42;2.00;;;;;;;9.53;75.54;98068.69;5022082;28;20298;-63
2021/01/21 03:11:37;;;;;;;3.95;1.50;;;;;;;9.62;75.40;98084.41;5022272;28;20459;-63
2021/01/21 03:14:04;;;;;;;5.10;1.63;;;;;;;9.61;75.98;98081.94;5021889;28;20049;-64
2021/01/21 03:16:30;;;;;;;3.53;1.50;;;;;;;9.69;75.81;98079.09;5022795;28;20049;-63
2021/01/21 03:18:56;;;;;;;4.40;1.90;;;;;;;9.74;75.38;98060.50;5023386;28;20058;-64
2021/01/21 03:21:22;;;;;;;5.45;1.90;;;;;;;9.71;76.55;98066.28;5011606;28;20396;-64
2021/01/21 03:23:48;;;;;;;4.03;1.42;;;;;;;9.91;76.81;98052.09;5029956;22;20032;-63
2021/01/21 03:26:14;;;;;;;2.83;1.60;;;;;;;9.78;78.27;98061.78;5065927;28;20082;-64
2021/01/21 03:28:41;;;;;;;3.20;1.40;;;;;;;9.69;79.88;98057.63;5068806;28;20139;-62
2021/01/21 03:31:07;;;;;;;3.08;1.40;;;;;;;9.74;79.86;98068.56;5068690;28;20048;-62
2021/01/21 03:33:33;;;;;;;2.78;1.30;;;;;;;9.76;80.57;98057.63;5068841;28;20445;-62
2021/01/21 03:35:59;;;;;;;2.22;1.27;;;;;;;9.53;82.22;98056.09;5067867;28;20073;-62
2021/01/21 03:38:25;;;;;;;3.65;1.48;;;;;;;9.62;82.17;98052.19;5065814;28;20103;-61
2021/01/21 03:40:51;;;;;;;3.28;1.35;;;;;;;9.45;83.53;98030.22;5068730;28;20063;-62
2021/01/21 03:43:17;;;;;;;4.00;1.38;;;;;;;9.34;84.10;98038.03;5066625;28;20896;-60
2021/01/21 03:45:43;;;;;;;3.72;1.60;;;;;;;9.20;85.95;98040.63;5038948;28;20665;-61
2021/01/21 03:48:10;;;;;;;4.03;1.67;;;;;;;9.01;87.49;98028.72;5060624;28;20056;-60
2021/01/21 03:50:35;;;;;;;3.38;1.70;;;;;;;8.97;88.08;98019.41;5068968;28;20512;-60
2021/01/21 03:53:02;;;;;;;4.70;1.80;;;;;;;8.94;88.82;98026.00;5066891;28;20048;-60
2021/01/21 03:55:27;;;;;;;4.05;1.75;;;;;;;8.80;90.11;98016.19;5065701;28;20060;-60
2021/01/21 03:57:54;;;;;;;3.95;2.00;;;;;;;8.73;90.49;98018.81;5069225;28;20091;-60
2021/01/21 04:00:21;;;;;;;3.75;1.77;;;;;;;8.67;91.61;98016.06;5067347;28;20051;-60
2021/01/21 04:02:46;;;;;;;4.20;1.77;;;;;;;8.84;91.03;98016.63;5068780;28;20044;-59
2021/01/21 04:05:12;;;;;;;3.03;1.98;;;;;;;8.81;91.26;98022.41;5067047;28;20052;-61
2021/01/21 04:07:38;;;;;;;5.72;1.98;;;;;;;8.85;90.78;98075.44;5068326;28;20413;-60
2021/01/21 04:10:06;;;;;;;4.57;1.30;;;;;;;6.78;88.43;98268.00;5066720;28;20520;-60
2021/01/21 04:12:31;;;;;;;3.40;1.60;;;;;;;5.37;90.53;98264.00;5069663;28;20055;-61
2021/01/21 04:14:58;;;;;;;6.72;1.40;;;;;;;5.12;91.47;98272.00;5065982;28;20402;-60
2021/01/21 04:17:24;;;;;;;4.60;1.33;;;;;;;5.07;91.97;98279.66;5066967;28;20405;-60
2021/01/21 04:19:50;;;;;;;6.35;1.27;;;;;;;5.03;91.75;98273.00;5068886;28;20060;-61
2021/01/21 04:22:16;;;;;;;4.75;1.35;;;;;;;5.00;91.46;98279.47;5065631;28;20059;-61
2021/01/21 04:24:42;;;;;;;3.28;1.10;;;;;;;5.11;90.97;98286.34;5075913;28;20062;-61
2021/01/21 04:27:08;;;;;;;3.30;1.00;;;;;;;5.22;90.95;98293.19;5068756;28;20174;-61
2021/01/21 04:29:34;;;;;;;4.78;1.50;;;;;;;5.33;90.10;98302.69;5068962;28;20047;-61
2021/01/21 04:32:00;;;;;;;5.47;1.25;;;;;;;5.44;89.75;98307.69;5066765;28;20053;-61
2021/01/21 04:34:26;;;;;;;5.78;1.05;;;;;;;5.54;88.70;98292.34;5070735;28;20113;-62
2021/01/21 04:36:52;;;;;;;6.20;1.60;;;;;;;5.66;88.28;98292.03;5071894;28;20048;-62
2021/01/21 04:39:18;;;;;;;9.10;1.42;;;;;;;5.77;86.54;98307.69;5065990;28;20136;-61
2021/01/21 04:41:45;;;;;;;6.57;1.23;;;;;;;5.75;87.31;98331.88;5066872;28;20049;-61
2021/01/21 04:44:11;;;;;;;4.10;0.98;;;;;;;5.78;86.93;98336.03;5066680;28;20044;-61
2021/01/21 04:46:38;;;;;;;5.25;1.50;;;;;;;5.85;85.45;98360.25;5065344;28;20052;-61
2021/01/21 04:49:06;;;;;;;5.28;1.38;;;;;;;5.78;85.21;98352.88;5082438;28;20056;-61
2021/01/21 04:51:33;;;;;;;5.25;1.20;;;;;;;5.77;85.84;98351.25;5087807;28;20051;-61
2021/01/21 04:54:01;;;;;;;4.28;1.40;;;;;;;5.75;85.51;98347.88;5084297;28;20040;-61
2021/01/21 04:56:34;;;;;;;9.57;1.80;;;;;;;5.77;85.90;98331.69;5086396;28;20051;-61
2021/01/21 04:59:03;;;;;;;4.72;1.00;;;;;;;5.71;85.89;98329.72;5086428;28;20056;-60
2021/01/21 05:01:29;;;;;;;11.65;1.60;;;;;;;5.73;86.38;98322.38;5086937;28;20142;-61
2021/01/21 05:03:56;;;;;;;7.53;1.35;;;;;;;5.83;85.79;98277.66;5084960;28;20052;-61
2021/01/21 05:06:23;;;;;;;5.63;1.50;;;;;;;5.79;85.64;98327.88;5085257;28;20610;-61
2021/01/21 05:08:50;;;;;;;6.75;1.55;;;;;;;5.89;85.23;98342.88;5083028;28;20056;-61
2021/01/21 05:11:16;;;;;;;8.10;1.20;;;;;;;5.85;86.43;98376.25;5086532;28;20048;-62
2021/01/21 05:13:42;;;;;;;5.80;1.17;;;;;;;5.90;85.22;98387.25;5086857;28;20067;-61
2021/01/21 05:16:08;;;;;;;8.10;1.65;;;;;;;5.88;85.81;98387.44;5087584;28;20543;-61
2021/01/21 05:18:36;;;;;;;9.27;1.40;;;;;;;6.03;85.00;98387.63;5085505;28;20056;-61
2021/01/21 05:21:24;;;;;;;9.35;1.55;;;;;;;5.99;85.89;98388.13;5066400;23;20053;-62
2021/01/21 05:23:54;;;;;;;8.60;1.55;;;;;;;6.10;84.83;98393.97;5019475;28;20108;-61
2021/01/21 05:26:20;;;;;;;15.85;2.22;;;;;;;6.21;83.65;98419.47;5027308;28;20054;-61
2021/01/21 05:28:48;;;;;;;13.70;2.38;;;;;;;6.20;84.28;98423.16;5028995;28;20050;-63
2021/01/21 05:31:14;;;;;;;15.70;2.42;;;;;;;6.17;84.45;98442.22;5026924;28;20046;-62
2021/01/21 05:33:40;;;;;;;7.93;1.70;;;;;;;6.18;84.44;98456.38;5027725;28;20054;-62
2021/01/21 05:36:07;;;;;;;14.50;2.35;;;;;;;6.24;82.70;98469.91;5027637;28;20061;-62
2021/01/21 05:38:33;;;;;;;9.90;2.00;;;;;;;6.21;83.42;98480.09;5029002;28;20056;-61
2021/01/21 05:41:00;;;;;;;13.35;2.47;;;;;;;6.20;82.85;98471.25;5028138;28;20406;-61
2021/01/21 05:43:27;;;;;;;13.73;2.15;;;;;;;6.16;82.48;98488.59;5027212;28;20388;-61
2021/01/21 05:45:53;;;;;;;13.77;2.55;;;;;;;6.15;81.93;98481.59;5025791;28;20140;-62
2021/01/21 05:48:19;;;;;;;14.05;2.25;;;;;;;6.13;81.83;98508.47;5001006;28;20061;-63
2021/01/21 05:50:46;;;;;;;15.82;2.50;;;;;;;6.20;81.34;98523.81;5027945;28;20136;-62
2021/01/21 05:53:12;;;;;;;9.57;2.00;;;;;;;6.19;81.14;98525.66;5029468;28;20046;-63
2021/01/21 05:55:41;;;;;;;17.15;2.90;;;;;;;6.06;82.30;98515.47;5030162;28;20041;-63
2021/01/21 05:58:10;;;;;;;8.90;2.03;;;;;;;5.96;82.03;98520.94;5027749;28;20046;-62
2021/01/21 06:00:38;;;;;;;14.75;3.03;;;;;;;5.92;82.06;98513.44;5029986;28;20115;-62
2021/01/21 06:03:04;;;;;;;11.00;1.95;;;;;;;5.83;81.63;98517.06;5030801;28;20522;-63
2021/01/21 06:05:32;;;;;;;10.93;1.90;;;;;;;5.80;81.47;98531.59;5028506;28;20053;-62
2021/01/21 06:07:58;;;;;;;15.93;2.88;;;;;;;5.74;81.02;98542.88;5030531;28;20099;-63
2021/01/21 06:10:24;;;;;;;10.43;2.15;;;;;;;5.65;81.96;98533.19;5030162;28;20049;-63
2021/01/21 06:12:51;;;;;;;9.00;1.98;;;;;;;5.74;81.24;98566.91;5030750;28;20049;-62
2021/01/21 06:15:19;;;;;;;15.23;2.17;;;;;;;5.76;80.91;98562.25;5029407;28;20049;-63
2021/01/21 06:17:48;;;;;;;16.70;2.45;;;;;;;5.73;80.52;98565.25;5031454;28;20064;-62
2021/01/21 06:20:15;;;;;;;12.27;2.90;;;;;;;5.70;80.31;98581.59;5028474;28;20065;-62
2021/01/21 06:22:45;;;;;;;10.02;1.73;;;;;;;5.68;80.58;98575.56;5030774;28;20061;-63
2021/01/21 06:25:13;;;;;;;;;;;;;;;5.65;80.52;98597.25;5029054;28;20065;-62
2021/01/21 06:27:41;;;;;;;10.48;2.40;;;;;;;5.63;80.17;98600.06;5029860;28;19979;-61
2021/01/21 06:30:13;;;;;;;8.40;1.98;;;;;;;5.62;80.56;98609.06;5029083;28;20041;-63
2021/01/21 06:32:48;;;;;;;10.98;2.33;;;;;;;5.55;81.13;98611.56;5030841;28;20050;-63
2021/01/21 06:35:19;;;;;;;9.45;1.80;;;;;;;5.45;81.10;98618.84;5028166;28;20053;-63
2021/01/21 06:37:50;;;;;;;7.32;1.90;;;;;;;5.54;80.65;98620.53;5029972;28;20157;-64
2021/01/21 06:40:17;;;;;;;10.27;2.20;;;;;;;5.54;79.42;98647.22;5027220;28;20136;-63
2021/01/21 06:42:54;;;;;;;20.50;2.45;;;;;;;5.60;78.37;98651.94;5030890;28;20474;-62
2021/01/21 06:45:21;;;;;;;8.15;1.95;;;;;;;5.54;78.80;98649.06;5028224;28;20623;-64
2021/01/21 06:47:48;;;;;;;7.50;1.95;;;;;;;5.44;78.52;98657.16;5031742;28;20049;-63
2021/01/21 06:50:15;;;;;;;11.07;1.88;;;;;;;5.30;78.45;98653.25;5029061;28;20057;-64
2021/01/21 06:52:42;;;;;;;7.35;1.83;;;;;;;5.29;78.16;98658.75;5029062;28;20473;-63
2021/01/21 06:55:09;;;;;;;9.45;1.90;;;;;;;5.28;78.56;98670.41;5027166;28;20054;-63
2021/01/21 06:57:45;;;;;;;7.53;2.10;;;;;;;5.29;79.16;98672.09;5028913;28;20497;-63
2021/01/21 07:00:14;;;;;;;7.05;1.52;;;;;;;5.19;79.59;98675.66;5028806;28;20053;-63
2021/01/21 07:02:41;;;;;;;11.35;2.10;;;;;;;5.20;78.61;98688.03;5029675;28;20063;-62
2021/01/21 07:08:10;;;;;;;10.27;2.13;;;;;;;5.07;79.33;98692.91;5043327;22;20433;-63
2021/01/21 07:10:40;;;;;;;6.93;2.03;;;;;;;5.09;78.91;98699.78;5002724;28;20054;-64
2021/01/21 07:13:06;;;;;;;;;;;;;;;5.05;79.44;98702.88;5025237;28;20255;-62
2021/01/21 07:15:35;;;;;;;10.57;1.88;;;;;;;5.04;79.64;98710.06;5036638;28;20338;-62
2021/01/21 07:18:03;;;;;;;9.35;1.63;;;;;;;5.04;80.07;98727.91;5038015;28;20057;-61
2021/01/21 07:20:31;;;;;;;5.47;1.98;;;;;;;5.10;79.72;98721.94;5038321;28;20050;-62
2021/01/21 07:23:03;;;;;;;9.57;1.70;;;;;;;5.15;79.02;98734.81;5039515;28;20045;-62
2021/01/21 07:25:31;;;;;;;10.60;1.90;;;;;;;5.11;79.46;98722.78;5037126;28;20116;-62
2021/01/21 07:27:57;;;;;;;7.65;1.55;;;;;;;5.07;78.63;98744.41;5038461;28;20140;-62
2021/01/21 07:30:25;;;;;;;12.07;2.45;;;;;;;5.05;78.81;98751.72;5038296;28;20115;-62
2021/01/21 07:33:22;;;;;;;4.90;1.60;;;;;;;5.04;77.84;98759.88;5038448;28;20158;-63
2021/01/21 07:35:49;;;;;;;12.27;2.05;;;;;;;5.00;78.34;98763.84;5037708;28;20045;-63
2021/01/21 07:38:51;;;;;;;6.95;2.03;;;;;;;4.98;78.29;98749.84;5037944;28;20056;-63
2021/01/21 07:41:55;;;;;;;8.10;1.63;;;;;;;4.95;77.81;98782.09;4973403;28;20046;-62
2021/01/21 07:44:21;;;;;;;9.18;1.50;;;;;;;4.90;78.31;98778.09;5037763;28;20101;-62
2021/01/21 07:46:47;;;;;;;12.07;1.52;;;;;;;4.82;78.18;98780.66;5029608;28;20498;-63
2021/01/21 07:49:24;;;;;;;6.38;1.75;;;;;;;4.86;77.73;98786.53;4972101;28;20081;-63
2021/01/21 07:52:04;;;;;;;7.85;1.60;;;;;;;4.80;78.56;98809.31;5025500;28;20178;-62
2021/01/21 07:54:31;;;;;;;6.22;1.52;;;;;;;4.72;78.95;98806.53;5037471;28;20441;-62
2021/01/21 07:56:58;;;;;;;10.73;2.92;;;;;;;4.64;79.11;98790.44;5036363;28;20045;-62
2021/01/21 07:59:24;;;;;;;6.95;1.67;;;;;;;4.70;78.71;98814.69;5037631;28;20567;-62
2021/01/21 08:01:57;;;;;;;5.18;1.50;;;;;;;4.63;79.42;98816.25;5030350;28;20407;-61
2021/01/21 08:04:23;;;;;;;9.57;1.90;;;;;;;4.56;79.64;98834.69;5017664;28;20053;-61
2021/01/21 08:06:56;;;;;;;11.15;1.95;;;;;;;4.64;79.07;98827.75;5020658;28;20045;-64
2021/01/21 08:09:34;;;;;;;8.10;1.98;;;;;;;4.59;78.53;98830.03;5076780;22;20139;-63
2021/01/21 08:12:01;;;;;;;7.00;1.90;;;;;;;4.57;78.67;98844.31;5039721;28;20049;-62
2021/01/21 08:14:31;;;;;;;8.18;2.47;;;;;;;4.60;78.66;98832.53;5041259;28;20049;-62
2021/01/21 08:17:03;;;;;;;8.30;1.70;;;;;;;4.60;78.68;98839.72;5041047;28;20057;-62
2021/01/21 08:19:29;;;;;;;10.10;2.00;;;;;;;4.57;78.57;98836.34;5041013;28;20059;-62
2021/01/21 08:22:06;;;;;;;10.90;1.70;;;;;;;4.59;78.33;98835.34;5040762;28;20671;-63
2021/01/21 08:24:32;;;;;;;10.60;1.80;;;;;;;4.60;78.48;98842.38;5040437;28;20090;-62
2021/01/21 08:27:03;;;;;;;7.65;1.98;;;;;;;4.58;78.45;98837.19;5041410;28;20061;-62
2021/01/21 08:29:30;;;;;;;11.80;2.25;;;;;;;4.62;78.49;98848.38;5040528;28;20049;-65
2021/01/21 08:31:56;;;;;;;7.05;2.00;;;;;;;4.60;78.72;98858.34;5040343;28;20045;-62
2021/01/21 08:34:24;;;;;;;9.20;1.67;;;;;;;4.60;79.10;98842.38;5040108;28;20460;-62
2021/01/21 08:37:01;;;;;;;6.10;1.92;;;;;;;4.57;79.11;98852.31;5040839;28;20049;-63
2021/01/21 08:39:27;;;;;;;15.77;1.73;;;;;;;4.59;79.37;98854.00;5041468;28;20379;-62
2021/01/21 08:41:53;;;;;;;7.03;1.90;;;;;;;4.54;79.74;98849.94;5041046;28;20107;-63
2021/01/21 08:44:20;;;;;;;9.65;2.58;;;;;;;4.54;80.31;98859.78;5039702;28;20498;-63
2021/01/21 08:46:57;;;;;;;9.05;1.90;;;;;;;4.59;80.66;98856.66;5040519;28;20382;-64
2021/01/21 08:49:23;;;;;;;8.65;2.33;;;;;;;4.62;80.71;98861.69;5040552;28;20132;-62
2021/01/21 08:52:05;;;;;;;9.85;2.58;;;;;;;4.62;81.09;98859.88;5041314;28;20041;-63
2021/01/21 08:54:31;;;;;;;6.80;1.75;;;;;;;4.72;80.53;98873.16;5038937;28;20041;-63
2021/01/21 08:57:08;;;;;;;8.45;2.13;;;;;;;4.72;80.58;98871.31;5038104;28;20048;-63
2021/01/21 08:59:35;;;;;;;9.00;2.13;;;;;;;4.73;80.68;98880.16;4995689;28;20598;-63
2021/01/21 09:02:03;;;;;;;12.10;2.50;;;;;;;4.82;80.05;98876.59;5034707;28;20045;-62
2021/01/21 09:04:31;;;;;;;15.48;2.40;;;;;;;4.82;80.45;98883.78;5040088;28;20052;-63
2021/01/21 09:06:58;;;;;;;9.38;2.55;;;;;;;4.87;79.46;98890.34;5040589;28;20045;-64
2021/01/21 09:09:30;;;;;;;11.95;2.80;;;;;;;4.96;79.31;98887.75;5040651;28;20053;-63
2021/01/21 09:11:57;;;;;;;12.65;2.72;;;;;;;4.90;79.66;98892.72;5041576;28;20081;-61
2021/01/21 09:14:24;;;;;;;9.35;2.30;;;;;;;4.98;79.30;98893.81;5042028;28;20060;-62
2021/01/21 09:16:52;;;;;;;7.60;2.45;;;;;;;5.04;78.90;98898.53;5016752;28;25578;-63
2021/01/21 09:19:42;;;;;;;15.00;3.38;;;;;;;5.05;78.92;98893.06;5035633;28;20502;-63
2021/01/21 09:22:09;;;;;;;12.45;2.40;;;;;;;5.15;77.73;98884.97;5043353;28;20151;-63
2021/01/21 09:24:54;;;;;;;12.85;2.55;;;;;;;5.19;77.70;98875.69;5042629;28;20132;-61
2021/01/21 09:27:22;;;;;;;9.85;2.40;;;;;;;5.24;77.63;98899.22;5044491;28;20111;-63
2021/01/21 09:29:50;;;;;;;14.75;2.65;;;;;;;5.24;77.77;98883.22;5044600;28;20053;-63
2021/01/21 09:32:18;;;;;;;9.45;2.22;;;;;;;5.30;77.64;98889.78;5043424;28;20429;-63
2021/01/21 09:34:55;;;;;;;10.05;2.00;;;;;;;5.38;77.64;98887.22;5043392;28;20056;-64
2021/01/21 09:37:21;;;;;;;9.43;2.40;;;;;;;5.37;77.84;98881.03;5043757;28;20053;-62
2021/01/21 09:39:48;;;;;;;8.25;2.42;;;;;;;5.51;76.73;98886.88;5044145;28;20075;-64
2021/01/21 09:42:15;;;;;;;10.93;2.22;;;;;;;5.54;76.82;98876.72;5042555;28;20486;-63
2021/01/21 09:44:40;;;;;;;7.70;2.70;;;;;;;5.53;76.86;98883.03;5044690;28;20045;-64
2021/01/21 09:47:06;;;;;;;9.32;2.22;;;;;;;5.58;76.70;98886.09;5042863;28;20386;-63
2021/01/21 09:49:33;;;;;;;12.07;2.38;;;;;;;5.60;76.50;98868.09;5040631;28;20076;-63
2021/01/21 09:52:00;;;;;;;11.10;2.17;;;;;;;5.72;76.33;98887.38;5042936;28;20071;-63
2021/01/21 09:54:27;;;;;;;13.63;3.03;;;;;;;5.74;76.01;98877.41;4966536;28;20686;-62
2021/01/21 09:56:54;;;;;;;13.57;2.53;;;;;;;5.78;76.25;98881.41;4935187;28;21353;-64
2021/01/21 09:59:20;;;;;;;10.90;2.20;;;;;;;5.80;76.00;98883.94;4925625;28;20050;-62
2021/01/21 10:01:47;;;;;;;13.43;2.95;;;;;;;5.86;76.46;98886.00;4927144;28;20056;-65
2021/01/21 10:04:13;;;;;;;12.50;2.40;;;;;;;5.87;76.53;98901.00;4897186;28;20670;-62
2021/01/21 10:06:39;;;;;;;12.20;2.53;;;;;;;5.94;77.18;98890.56;4932394;28;20057;-63
2021/01/21 10:09:05;;;;;;;11.50;2.30;;;;;;;6.05;77.13;98910.84;4950712;28;20462;-65
2021/01/21 10:11:31;;;;;;;6.97;2.10;;;;;;;6.02;77.30;98904.03;4951481;28;20052;-63
2021/01/21 10:13:57;;;;;;;10.88;3.03;;;;;;;6.01;77.21;98902.34;4954817;28;20049;-64
2021/01/21 10:16:23;;;;;;;10.07;2.60;;;;;;;6.04;77.81;98898.53;4959132;28;20159;-63
2021/01/21 10:18:49;;;;;;;10.52;2.15;;;;;;;6.20;78.02;98905.78;4957337;28;20093;-63
2021/01/21 10:21:15;;;;;;;13.95;2.72;;;;;;;6.08;78.06;98891.84;4959869;28;20106;-62
2021/01/21 10:23:42;;;;;;;14.32;2.67;;;;;;;6.19;77.48;98896.94;4959921;28;20048;-62
2021/01/21 10:26:08;;;;;;;10.57;2.47;;;;;;;6.27;77.49;98896.16;4960719;28;20064;-64
2021/01/21 10:28:34;;;;;;;12.50;2.13;;;;;;;6.22;77.75;98893.97;4959569;28;20501;-63
2021/01/21 10:31:00;;;;;;;8.93;2.38;;;;;;;6.27;77.95;98893.50;4958783;28;20464;-62
2021/01/21 10:33:26;;;;;;;12.05;2.80;;;;;;;6.27;78.33;98889.00;4953089;28;20056;-62
2021/01/21 10:35:52;;;;;;;12.15;2.47;;;;;;;6.36;77.94;98903.25;4954773;28;20187;-61
2021/01/21 10:38:18;;;;;;;13.15;3.92;;;;;;;6.34;77.73;98899.06;4956945;28;20063;-64
2021/01/21 10:40:44;;;;;;;11.73;2.25;;;;;;;6.28;78.19;98887.16;4949021;28;20509;-62
2021/01/21 10:43:10;;;;;;;9.57;2.20;;;;;;;6.39;77.75;98899.41;4967542;28;20487;-64
2021/01/21 10:45:36;;;;;;;9.10;2.30;;;;;;;6.45;78.08;98893.44;4959592;28;20079;-64
2021/01/21 10:48:02;;;;;;;6.47;2.38;;;;;;;6.54;77.83;98887.16;4952063;28;20101;-62
2021/01/21 10:50:28;;;;;;;13.52;2.40;;;;;;;6.62;77.96;98899.72;4960997;28;20060;-63
2021/01/21 10:52:54;;;;;;;8.95;2.45;;;;;;;6.69;77.91;98891.91;4952124;28;20125;-64
2021/01/21 10:55:20;;;;;;;7.15;1.95;;;;;;;6.78;77.46;98882.91;4952414;28;20057;-63
2021/01/21 10:57:48;;;;;;;17.23;2.70;;;;;;;6.77;77.43;98889.25;4955299;28;22085;-63
2021/01/21 11:00:16;;;;;;;12.95;3.30;;;;;;;6.80;76.66;98891.59;4953024;28;20053;-64
2021/01/21 11:02:42;;;;;;;12.30;2.55;;;;;;;6.89;76.85;98888.00;4954687;28;20063;-64
2021/01/21 11:05:08;;;;;;;12.85;2.25;;;;;;;6.84;76.58;98895.63;4952848;28;20556;-65
2021/01/21 11:07:34;;;;;;;7.60;1.75;;;;;;;6.89;76.35;98890.66;4955815;28;20378;-63
2021/01/21 11:10:00;;;;;;;8.70;1.95;;;;;;;6.81;77.71;98901.31;4948750;28;20095;-62
2021/01/21 11:12:26;;;;;;;10.27;2.13;;;;;;;6.80;76.92;98891.59;4912019;28;20480;-64
2021/01/21 11:14:53;;;;;;;9.90;2.13;;;;;;;6.80;76.87;98891.59;4918026;28;20648;-63
2021/01/21 11:17:19;;;;;;;8.63;2.10;;;;;;;6.87;76.41;98898.00;4907188;28;20367;-63
2021/01/21 11:19:45;;;;;;;7.50;2.25;;;;;;;6.81;76.49;98888.78;4906684;28;20135;-62
2021/01/21 11:22:11;;;;;;;13.10;2.75;;;;;;;6.83;76.81;98878.78;4887726;28;20147;-63
2021/01/21 11:24:37;;;;;;;8.88;2.05;;;;;;;6.91;76.34;98877.97;4904740;28;20049;-62
2021/01/21 11:27:03;;;;;;;8.63;2.03;;;;;;;6.96;76.43;98893.50;4912246;28;20089;-60
2021/01/21 11:29:29;;;;;;;7.00;1.95;;;;;;;7.01;75.40;98889.38;4904347;28;20052;-62
2021/01/21 11:31:56;;;;;;;11.55;2.00;;;;;;;6.92;76.34;98895.69;4912919;28;20524;-62
2021/01/21 11:34:22;;;;;;;9.20;1.67;;;;;;;6.95;75.53;98891.81;4934016;28;20081;-62
2021/01/21 11:36:50;;;;;;;5.20;1.67;;;;;;;7.02;75.89;98900.88;4923256;28;20064;-63
2021/01/21 11:39:16;;;;;;;7.22;1.92;;;;;;;7.06;75.56;98886.19;4926074;28;20239;-65
2021/01/21 11:41:42;;;;;;;7.90;2.08;;;;;;;7.01;75.70;98899.22;4927437;28;20098;-63
2021/01/21 11:44:08;;;;;;;6.20;1.83;;;;;;;6.96;74.96;98888.16;4929119;28;20468;-63
2021/01/21 11:46:34;;;;;;;8.38;2.10;;;;;;;6.95;74.95;98895.34;4923795;28;20064;-63